BAW63LE LSZH-EGLL
Flight info
| Callsign | BAW63LE |
|---|---|
| Flight time | N/A |
| Altitude | 34000 |
| Route | VEBIT T10 TORPA DCT REKLA DCT RLP DCT ROTSI DCT KOTUN DCT NINAL DCT ABNUR DCT DIMAL DCT ALESO |
| Aircraft | A321/M-SDE3FGHIRWY/LB1 |
Departure
| Time | 2026-04-30 13:34 |
|---|---|
| Airport | Zürich Airport (LSZH) |
Arrival
| Time | N/A |
|---|---|
| Airport | London Heathrow Airport (EGLL) |
| Time | Latitude | Longitude | Altitude | Speed | Heading |
|---|---|---|---|---|---|
| 2026-04-30 13:04 | 47.46102 | 8.55137 | 1397 ft | 0 kts | 65° |
| 2026-04-30 13:27 | 47.46088 | 8.55095 | 1404 ft | 2 kts | 65° |
| 2026-04-30 13:28 | 47.46099 | 8.55032 | 1406 ft | 1 kts | 155° |
| 2026-04-30 13:28 | 47.46120 | 8.55018 | 1406 ft | 0 kts | 155° |
| 2026-04-30 13:30 | 47.46059 | 8.55054 | 1405 ft | 8 kts | 171° |
| 2026-04-30 13:31 | 47.45930 | 8.54964 | 1402 ft | 13 kts | 226° |
| 2026-04-30 13:31 | 47.45947 | 8.54514 | 1398 ft | 19 kts | 275° |
| 2026-04-30 13:32 | 47.45981 | 8.54031 | 1400 ft | 25 kts | 276° |
| 2026-04-30 13:32 | 47.45895 | 8.53777 | 1398 ft | 10 kts | 147° |
| 2026-04-30 13:33 | 47.45871 | 8.54090 | 1402 ft | 56 kts | 96° |
| 2026-04-30 13:33 | 47.45692 | 8.56555 | 1541 ft | 162 kts | 96° |
| 2026-04-30 13:34 | 47.45592 | 8.58166 | 2309 ft | 158 kts | 95° |
| 2026-04-30 13:34 | 47.45215 | 8.63377 | 3420 ft | 198 kts | 95° |
| 2026-04-30 13:35 | 47.45343 | 8.65434 | 3871 ft | 206 kts | 72° |
| 2026-04-30 13:35 | 47.47186 | 8.68548 | 4995 ft | 208 kts | 24° |
| 2026-04-30 13:36 | 47.50135 | 8.68531 | 5631 ft | 233 kts | 333° |
| 2026-04-30 13:36 | 47.51395 | 8.67007 | 5986 ft | 238 kts | 306° |
| 2026-04-30 13:36 | 47.51879 | 8.62041 | 6630 ft | 271 kts | 252° |
| 2026-04-30 13:37 | 47.51301 | 8.59355 | 7241 ft | 276 kts | 252° |
| 2026-04-30 13:37 | 47.50324 | 8.54807 | 8349 ft | 282 kts | 252° |
| 2026-04-30 13:38 | 47.49135 | 8.49233 | 9662 ft | 287 kts | 252° |
| 2026-04-30 13:38 | 47.48534 | 8.46407 | 10251 ft | 293 kts | 252° |
| 2026-04-30 13:38 | 47.47222 | 8.40249 | 10525 ft | 334 kts | 252° |